Aviation Digital Data Service (ADDS)

Output produced by METARs form (0738 UTC 20 March 2019)
found at http://www.aviationweather.gov/metar/data/
 
METAR text: LFQQ 200730Z AUTO 19004KT CAVOK 06/04 Q1033 TEMPO BKN012
Conditions at: LFQQ (LILLE/LESQUIN , FR) observed 0730 UTC 20 March 2019
Temperature: 6.0°C (43°F)
Dewpoint: 4.0°C (39°F) [RH = 87%]
Pressure (altimeter): 30.50 inches Hg (1033.0 mb)
Winds: from the S (190 degrees) at 5 MPH (4 knots; 2.1 m/s)
Visibility: 6 or more miles (10+ km)
Ceiling: ceiling and visibility are OK
Clouds: unknown
Weather: no significant weather observed at this time

METAR text: LFQQ 200700Z AUTO 18004KT CAVOK 04/03 Q1033 NOSIG
Conditions at: LFQQ (LILLE/LESQUIN , FR) observed 0700 UTC 20 March 2019
Temperature: 4.0°C (39°F)
Dewpoint: 3.0°C (37°F) [RH = 93%]
Pressure (altimeter): 30.50 inches Hg (1033.0 mb)
Winds: from the S (180 degrees) at 5 MPH (4 knots; 2.1 m/s)
Visibility: 6 or more miles (10+ km)
Ceiling: ceiling and visibility are OK
Clouds: unknown
Weather: no significant weather observed at this time

METAR text: LFQQ 200630Z AUTO 19003KT CAVOK 04/03 Q1033 NOSIG
Conditions at: LFQQ (LILLE/LESQUIN , FR) observed 0630 UTC 20 March 2019
Temperature: 4.0°C (39°F)
Dewpoint: 3.0°C (37°F) [RH = 93%]
Pressure (altimeter): 30.50 inches Hg (1033.0 mb)
Winds: from the S (190 degrees) at 3 MPH (3 knots; 1.5 m/s)
Visibility: 6 or more miles (10+ km)
Ceiling: ceiling and visibility are OK
Clouds: unknown
Weather: no significant weather observed at this time

METAR text: LFQQ 200600Z AUTO 19002KT CAVOK 03/02 Q1032 TEMPO 3000 BR BKN010
Conditions at: LFQQ (LILLE/LESQUIN , FR) observed 0600 UTC 20 March 2019
Temperature: 3.0°C (37°F)
Dewpoint: 2.0°C (36°F) [RH = 93%]
Pressure (altimeter): 30.47 inches Hg (1032.0 mb)
Winds: from the S (190 degrees) at 2 MPH (2 knots; 1.0 m/s)
Visibility: 6 or more miles (10+ km)
Ceiling: ceiling and visibility are OK
Clouds: unknown
Weather: no significant weather observed at this time

METAR text: LFQQ 200530Z AUTO 17004KT CAVOK 03/03 Q1032 TEMPO 3000 BR BKN010
Conditions at: LFQQ (LILLE/LESQUIN , FR) observed 0530 UTC 20 March 2019
Temperature: 3.0°C (37°F)
Dewpoint: 3.0°C (37°F) [RH = 100%]
Pressure (altimeter): 30.47 inches Hg (1032.0 mb)
Winds: from the S (170 degrees) at 5 MPH (4 knots; 2.1 m/s)
Visibility: 6 or more miles (10+ km)
Ceiling: ceiling and visibility are OK
Clouds: unknown
Weather: no significant weather observed at this time

METAR text: LFQQ 200500Z AUTO 18002KT CAVOK 03/02 Q1032 TEMPO 3000 BR BKN010
Conditions at: LFQQ (LILLE/LESQUIN , FR) observed 0500 UTC 20 March 2019
Temperature: 3.0°C (37°F)
Dewpoint: 2.0°C (36°F) [RH = 93%]
Pressure (altimeter): 30.47 inches Hg (1032.0 mb)
Winds: from the S (180 degrees) at 2 MPH (2 knots; 1.0 m/s)
Visibility: 6 or more miles (10+ km)
Ceiling: ceiling and visibility are OK
Clouds: unknown
Weather: no significant weather observed at this time

METAR text: LFQQ 200430Z AUTO 17003KT CAVOK 03/02 Q1032 TEMPO 3000 BR BKN010
Conditions at: LFQQ (LILLE/LESQUIN , FR) observed 0430 UTC 20 March 2019
Temperature: 3.0°C (37°F)
Dewpoint: 2.0°C (36°F) [RH = 93%]
Pressure (altimeter): 30.47 inches Hg (1032.0 mb)
Winds: from the S (170 degrees) at 3 MPH (3 knots; 1.5 m/s)
Visibility: 6 or more miles (10+ km)
Ceiling: ceiling and visibility are OK
Clouds: unknown
Weather: no significant weather observed at this time

METAR text: LFQQ 200400Z AUTO 19002KT CAVOK 03/03 Q1031 TEMPO 3000 BR BKN010
Conditions at: LFQQ (LILLE/LESQUIN , FR) observed 0400 UTC 20 March 2019
Temperature: 3.0°C (37°F)
Dewpoint: 3.0°C (37°F) [RH = 100%]
Pressure (altimeter): 30.44 inches Hg (1031.0 mb)
Winds: from the S (190 degrees) at 2 MPH (2 knots; 1.0 m/s)
Visibility: 6 or more miles (10+ km)
Ceiling: ceiling and visibility are OK
Clouds: unknown
Weather: no significant weather observed at this time

METAR text: LFQQ 200330Z AUTO 18006KT CAVOK 04/03 Q1031 TEMPO 3000 BR BKN010
Conditions at: LFQQ (LILLE/LESQUIN , FR) observed 0330 UTC 20 March 2019
Temperature: 4.0°C (39°F)
Dewpoint: 3.0°C (37°F) [RH = 93%]
Pressure (altimeter): 30.44 inches Hg (1031.0 mb)
Winds: from the S (180 degrees) at 7 MPH (6 knots; 3.1 m/s)
Visibility: 6 or more miles (10+ km)
Ceiling: ceiling and visibility are OK
Clouds: unknown
Weather: no significant weather observed at this time

METAR text: LFQQ 200300Z AUTO 18003KT 7000 NSC 05/04 Q1031 TEMPO 3000 BR BKN010
Conditions at: LFQQ (LILLE/LESQUIN , FR) observed 0300 UTC 20 March 2019
Temperature: 5.0°C (41°F)
Dewpoint: 4.0°C (39°F) [RH = 93%]
Pressure (altimeter): 30.44 inches Hg (1031.0 mb)
Winds: from the S (180 degrees) at 3 MPH (3 knots; 1.5 m/s)
Visibility: 4 miles ( 7 km)
Ceiling: at least 12,000 feet AGL
Clouds: sky clear below 12,000 feet AGL
Weather: no significant weather observed at this time

METAR text: LFQQ 200230Z AUTO 19005KT 5000 BR NSC 04/04 Q1032 TEMPO BKN010
Conditions at: LFQQ (LILLE/LESQUIN , FR) observed 0230 UTC 20 March 2019
Temperature: 4.0°C (39°F)
Dewpoint: 4.0°C (39°F) [RH = 100%]
Pressure (altimeter): 30.47 inches Hg (1032.0 mb)
Winds: from the S (190 degrees) at 6 MPH (5 knots; 2.6 m/s)
Visibility: 3 miles ( 5 km)
Ceiling: at least 12,000 feet AGL
Clouds: sky clear below 12,000 feet AGL
Weather: BR  (mist)

METAR text: LFQQ 200200Z AUTO 19002KT 4200 0450 R26/P2000 R08/P2000 BCFG NSC 04/03 Q1032 TEMPO BKN010
Conditions at: LFQQ (LILLE/LESQUIN , FR) observed 0200 UTC 20 March 2019
Temperature: 4.0°C (39°F)
Dewpoint: 3.0°C (37°F) [RH = 93%]
Pressure (altimeter): 30.47 inches Hg (1032.0 mb)
Winds: from the S (190 degrees) at 2 MPH (2 knots; 1.0 m/s)
Visibility: 2.61 miles (4.20 km)
Ceiling: at least 12,000 feet AGL
Clouds: sky clear below 12,000 feet AGL
Weather: BCFG  (patches of fog)

METAR text: LFQQ 200130Z AUTO 19003KT 4400 BR NSC 05/04 Q1032 TEMPO BKN010
Conditions at: LFQQ (LILLE/LESQUIN , FR) observed 0130 UTC 20 March 2019
Temperature: 5.0°C (41°F)
Dewpoint: 4.0°C (39°F) [RH = 93%]
Pressure (altimeter): 30.47 inches Hg (1032.0 mb)
Winds: from the S (190 degrees) at 3 MPH (3 knots; 1.5 m/s)
Visibility: 2.73 miles (4.39 km)
Ceiling: at least 12,000 feet AGL
Clouds: sky clear below 12,000 feet AGL
Weather: BR  (mist)

METAR text: LFQQ 200100Z AUTO 19002KT 6000 NSC 05/04 Q1032 TEMPO 3000 BR BKN010
Conditions at: LFQQ (LILLE/LESQUIN , FR) observed 0100 UTC 20 March 2019
Temperature: 5.0°C (41°F)
Dewpoint: 4.0°C (39°F) [RH = 93%]
Pressure (altimeter): 30.47 inches Hg (1032.0 mb)
Winds: from the S (190 degrees) at 2 MPH (2 knots; 1.0 m/s)
Visibility: 4 miles ( 6 km)
Ceiling: at least 12,000 feet AGL
Clouds: sky clear below 12,000 feet AGL
Weather: no significant weather observed at this time

METAR text: LFQQ 200030Z AUTO 17002KT 8000 3000 NSC 05/04 Q1032 TEMPO 3000 BR BKN010
Conditions at: LFQQ (LILLE/LESQUIN , FR) observed 0030 UTC 20 March 2019
Temperature: 5.0°C (41°F)
Dewpoint: 4.0°C (39°F) [RH = 93%]
Pressure (altimeter): 30.47 inches Hg (1032.0 mb)
Winds: from the S (170 degrees) at 2 MPH (2 knots; 1.0 m/s)
Visibility: 5 miles ( 8 km)
Ceiling: at least 12,000 feet AGL
Clouds: sky clear below 12,000 feet AGL
Weather: no significant weather observed at this time

METAR text: LFQQ 200000Z AUTO 18001KT CAVOK 06/05 Q1032 NOSIG
Conditions at: LFQQ (LILLE/LESQUIN , FR) observed 0000 UTC 20 March 2019
Temperature: 6.0°C (43°F)
Dewpoint: 5.0°C (41°F) [RH = 93%]
Pressure (altimeter): 30.47 inches Hg (1032.0 mb)
Winds: from the S (180 degrees) at 1 MPH (1 knots; 0.5 m/s)
Visibility: 6 or more miles (10+ km)
Ceiling: ceiling and visibility are OK
Clouds: unknown
Weather: no significant weather observed at this time

METAR text: LFQQ 192330Z AUTO 22003KT CAVOK 07/05 Q1032 BECMG 3000 BR
Conditions at: LFQQ (LILLE/LESQUIN , FR) observed 2330 UTC 19 March 2019
Temperature: 7.0°C (45°F)
Dewpoint: 5.0°C (41°F) [RH = 87%]
Pressure (altimeter): 30.47 inches Hg (1032.0 mb)
Winds: from the SW (220 degrees) at 3 MPH (3 knots; 1.5 m/s)
Visibility: 6 or more miles (10+ km)
Ceiling: ceiling and visibility are OK
Clouds: unknown
Weather: no significant weather observed at this time

METAR text: LFQQ 192300Z AUTO 22005KT CAVOK 07/05 Q1031 BECMG 3000 BR
Conditions at: LFQQ (LILLE/LESQUIN , FR) observed 2300 UTC 19 March 2019
Temperature: 7.0°C (45°F)
Dewpoint: 5.0°C (41°F) [RH = 87%]
Pressure (altimeter): 30.44 inches Hg (1031.0 mb)
Winds: from the SW (220 degrees) at 6 MPH (5 knots; 2.6 m/s)
Visibility: 6 or more miles (10+ km)
Ceiling: ceiling and visibility are OK
Clouds: unknown
Weather: no significant weather observed at this time

METAR text: LFQQ 192230Z AUTO 23004KT CAVOK 07/05 Q1031 BECMG 3000 BR
Conditions at: LFQQ (LILLE/LESQUIN , FR) observed 2230 UTC 19 March 2019
Temperature: 7.0°C (45°F)
Dewpoint: 5.0°C (41°F) [RH = 87%]
Pressure (altimeter): 30.44 inches Hg (1031.0 mb)
Winds: from the SW (230 degrees) at 5 MPH (4 knots; 2.1 m/s)
Visibility: 6 or more miles (10+ km)
Ceiling: ceiling and visibility are OK
Clouds: unknown
Weather: no significant weather observed at this time

METAR text: LFQQ 192200Z AUTO 26005KT CAVOK 07/04 Q1031 BECMG 3000 BR
Conditions at: LFQQ (LILLE/LESQUIN , FR) observed 2200 UTC 19 March 2019
Temperature: 7.0°C (45°F)
Dewpoint: 4.0°C (39°F) [RH = 81%]
Pressure (altimeter): 30.44 inches Hg (1031.0 mb)
Winds: from the W (260 degrees) at 6 MPH (5 knots; 2.6 m/s)
Visibility: 6 or more miles (10+ km)
Ceiling: ceiling and visibility are OK
Clouds: unknown
Weather: no significant weather observed at this time

METAR text: LFQQ 192130Z AUTO 21003KT CAVOK 07/05 Q1031 BECMG 3000 BR
Conditions at: LFQQ (LILLE/LESQUIN , FR) observed 2130 UTC 19 March 2019
Temperature: 7.0°C (45°F)
Dewpoint: 5.0°C (41°F) [RH = 87%]
Pressure (altimeter): 30.44 inches Hg (1031.0 mb)
Winds: from the SSW (210 degrees) at 3 MPH (3 knots; 1.5 m/s)
Visibility: 6 or more miles (10+ km)
Ceiling: ceiling and visibility are OK
Clouds: unknown
Weather: no significant weather observed at this time

METAR text: LFQQ 192100Z AUTO 23005KT CAVOK 08/05 Q1031 NOSIG
Conditions at: LFQQ (LILLE/LESQUIN , FR) observed 2100 UTC 19 March 2019
Temperature: 8.0°C (46°F)
Dewpoint: 5.0°C (41°F) [RH = 81%]
Pressure (altimeter): 30.44 inches Hg (1031.0 mb)
Winds: from the SW (230 degrees) at 6 MPH (5 knots; 2.6 m/s)
Visibility: 6 or more miles (10+ km)
Ceiling: ceiling and visibility are OK
Clouds: unknown
Weather: no significant weather observed at this time

METAR text: LFQQ 192030Z AUTO 25007KT 9999 FEW044 BKN066 08/04 Q1031 NOSIG
Conditions at: LFQQ (LILLE/LESQUIN , FR) observed 2030 UTC 19 March 2019
Temperature: 8.0°C (46°F)
Dewpoint: 4.0°C (39°F) [RH = 76%]
Pressure (altimeter): 30.44 inches Hg (1031.0 mb)
Winds: from the WSW (250 degrees) at 8 MPH (7 knots; 3.6 m/s)
Visibility: 6 or more miles (10+ km)
Ceiling: 6600 feet AGL
Clouds: few clouds at 4400 feet AGL
broken clouds at 6600 feet AGL
Weather: no significant weather observed at this time

METAR text: LFQQ 192000Z AUTO 24006KT CAVOK 09/05 Q1031 NOSIG
Conditions at: LFQQ (LILLE/LESQUIN , FR) observed 2000 UTC 19 March 2019
Temperature: 9.0°C (48°F)
Dewpoint: 5.0°C (41°F) [RH = 76%]
Pressure (altimeter): 30.44 inches Hg (1031.0 mb)
Winds: from the WSW (240 degrees) at 7 MPH (6 knots; 3.1 m/s)
Visibility: 6 or more miles (10+ km)
Ceiling: ceiling and visibility are OK
Clouds: unknown
Weather: no significant weather observed at this time

METAR text: LFQQ 191930Z AUTO 24005KT CAVOK 09/05 Q1030 NOSIG
Conditions at: LFQQ (LILLE/LESQUIN , FR) observed 1930 UTC 19 March 2019
Temperature: 9.0°C (48°F)
Dewpoint: 5.0°C (41°F) [RH = 76%]
Pressure (altimeter): 30.41 inches Hg (1030.0 mb)
Winds: from the WSW (240 degrees) at 6 MPH (5 knots; 2.6 m/s)
Visibility: 6 or more miles (10+ km)
Ceiling: ceiling and visibility are OK
Clouds: unknown
Weather: no significant weather observed at this time

METAR text: LFQQ 191900Z AUTO 21004KT 9999 FEW039 OVC068 10/05 Q1030 NOSIG
Conditions at: LFQQ (LILLE/LESQUIN , FR) observed 1900 UTC 19 March 2019
Temperature: 10.0°C (50°F)
Dewpoint: 5.0°C (41°F) [RH = 71%]
Pressure (altimeter): 30.41 inches Hg (1030.0 mb)
Winds: from the SSW (210 degrees) at 5 MPH (4 knots; 2.1 m/s)
Visibility: 6 or more miles (10+ km)
Ceiling: 6800 feet AGL
Clouds: few clouds at 3900 feet AGL
overcast cloud deck at 6800 feet AGL
Weather: no significant weather observed at this time

METAR text: LFQQ 191830Z AUTO 18003KT 9999 FEW039 OVC068 10/05 Q1030 NOSIG
Conditions at: LFQQ (LILLE/LESQUIN , FR) observed 1830 UTC 19 March 2019
Temperature: 10.0°C (50°F)
Dewpoint: 5.0°C (41°F) [RH = 71%]
Pressure (altimeter): 30.41 inches Hg (1030.0 mb)
Winds: from the S (180 degrees) at 3 MPH (3 knots; 1.5 m/s)
Visibility: 6 or more miles (10+ km)
Ceiling: 6800 feet AGL
Clouds: few clouds at 3900 feet AGL
overcast cloud deck at 6800 feet AGL
Weather: no significant weather observed at this time

METAR text: LFQQ 191800Z AUTO 17003KT 9999 FEW034 OVC068 11/05 Q1029 NOSIG
Conditions at: LFQQ (LILLE/LESQUIN , FR) observed 1800 UTC 19 March 2019
Temperature: 11.0°C (52°F)
Dewpoint: 5.0°C (41°F) [RH = 66%]
Pressure (altimeter): 30.38 inches Hg (1029.0 mb)
Winds: from the S (170 degrees) at 3 MPH (3 knots; 1.5 m/s)
Visibility: 6 or more miles (10+ km)
Ceiling: 6800 feet AGL
Clouds: few clouds at 3400 feet AGL
overcast cloud deck at 6800 feet AGL
Weather: no significant weather observed at this time

METAR text: LFQQ 191730Z AUTO 26002KT 9999 FEW035 SCT045 OVC068 11/05 Q1029 NOSIG
Conditions at: LFQQ (LILLE/LESQUIN , FR) observed 1730 UTC 19 March 2019
Temperature: 11.0°C (52°F)
Dewpoint: 5.0°C (41°F) [RH = 66%]
Pressure (altimeter): 30.38 inches Hg (1029.0 mb)
Winds: from the W (260 degrees) at 2 MPH (2 knots; 1.0 m/s)
Visibility: 6 or more miles (10+ km)
Ceiling: 6800 feet AGL
Clouds: few clouds at 3500 feet AGL
scattered clouds at 4500 feet AGL
overcast cloud deck at 6800 feet AGL
Weather: no significant weather observed at this time

METAR text: LFQQ 191700Z AUTO 29003KT 9999 FEW037 OVC068 11/05 Q1029 TEMPO 4000 SHRA BKN030TCU
Conditions at: LFQQ (LILLE/LESQUIN , FR) observed 1700 UTC 19 March 2019
Temperature: 11.0°C (52°F)
Dewpoint: 5.0°C (41°F) [RH = 66%]
Pressure (altimeter): 30.38 inches Hg (1029.0 mb)
Winds: from the WNW (290 degrees) at 3 MPH (3 knots; 1.5 m/s)
Visibility: 6 or more miles (10+ km)
Ceiling: 6800 feet AGL
Clouds: few clouds at 3700 feet AGL
overcast cloud deck at 6800 feet AGL
Weather: no significant weather observed at this time

METAR text: LFQQ 191630Z AUTO 25005KT 210V280 9999 BKN035 OVC066 11/05 Q1029 TEMPO 4000 SHRA BKN030TCU
Conditions at: LFQQ (LILLE/LESQUIN , FR) observed 1630 UTC 19 March 2019
Temperature: 11.0°C (52°F)
Dewpoint: 5.0°C (41°F) [RH = 66%]
Pressure (altimeter): 30.38 inches Hg (1029.0 mb)
Winds: from the WSW (250 degrees) at 6 MPH (5 knots; 2.6 m/s)
Visibility: 6 or more miles (10+ km)
Ceiling: 3500 feet AGL
Clouds: broken clouds at 3500 feet AGL
overcast cloud deck at 6600 feet AGL
Weather: no significant weather observed at this time

METAR text: LFQQ 191600Z AUTO 21003KT 9999 BKN034 OVC064 11/04 Q1028 TEMPO 4000 SHRA BKN030TCU
Conditions at: LFQQ (LILLE/LESQUIN , FR) observed 1600 UTC 19 March 2019
Temperature: 11.0°C (52°F)
Dewpoint: 4.0°C (39°F) [RH = 62%]
Pressure (altimeter): 30.35 inches Hg (1028.0 mb)
Winds: from the SSW (210 degrees) at 3 MPH (3 knots; 1.5 m/s)
Visibility: 6 or more miles (10+ km)
Ceiling: 3400 feet AGL
Clouds: broken clouds at 3400 feet AGL
overcast cloud deck at 6400 feet AGL
Weather: no significant weather observed at this time

METAR text: LFQQ 191530Z AUTO 21005KT 9999 FEW036 OVC066 11/05 Q1028 TEMPO 4000 SHRA BKN030TCU
Conditions at: LFQQ (LILLE/LESQUIN , FR) observed 1530 UTC 19 March 2019
Temperature: 11.0°C (52°F)
Dewpoint: 5.0°C (41°F) [RH = 66%]
Pressure (altimeter): 30.35 inches Hg (1028.0 mb)
Winds: from the SSW (210 degrees) at 6 MPH (5 knots; 2.6 m/s)
Visibility: 6 or more miles (10+ km)
Ceiling: 6600 feet AGL
Clouds: few clouds at 3600 feet AGL
overcast cloud deck at 6600 feet AGL
Weather: no significant weather observed at this time

METAR text: LFQQ 191500Z AUTO 22007KT 9999 SCT034 SCT049 OVC062 11/04 Q1028 TEMPO 4000 SHRA BKN030TCU
Conditions at: LFQQ (LILLE/LESQUIN , FR) observed 1500 UTC 19 March 2019
Temperature: 11.0°C (52°F)
Dewpoint: 4.0°C (39°F) [RH = 62%]
Pressure (altimeter): 30.35 inches Hg (1028.0 mb)
Winds: from the SW (220 degrees) at 8 MPH (7 knots; 3.6 m/s)
Visibility: 6 or more miles (10+ km)
Ceiling: 6200 feet AGL
Clouds: scattered clouds at 3400 feet AGL
scattered clouds at 4900 feet AGL
overcast cloud deck at 6200 feet AGL
Weather: no significant weather observed at this time

METAR text: LFQQ 191430Z AUTO 23004KT 190V270 9999 FEW033 OVC064 11/04 Q1028 TEMPO 4000 SHRA BKN030TCU
Conditions at: LFQQ (LILLE/LESQUIN , FR) observed 1430 UTC 19 March 2019
Temperature: 11.0°C (52°F)
Dewpoint: 4.0°C (39°F) [RH = 62%]
Pressure (altimeter): 30.35 inches Hg (1028.0 mb)
Winds: from the SW (230 degrees) at 5 MPH (4 knots; 2.1 m/s)
Visibility: 6 or more miles (10+ km)
Ceiling: 6400 feet AGL
Clouds: few clouds at 3300 feet AGL
overcast cloud deck at 6400 feet AGL
Weather: no significant weather observed at this time

METAR text: LFQQ 191400Z AUTO 25007KT 9999 FEW047 OVC064 11/05 Q1028 TEMPO 4000 SHRA BKN030TCU
Conditions at: LFQQ (LILLE/LESQUIN , FR) observed 1400 UTC 19 March 2019
Temperature: 11.0°C (52°F)
Dewpoint: 5.0°C (41°F) [RH = 66%]
Pressure (altimeter): 30.35 inches Hg (1028.0 mb)
Winds: from the WSW (250 degrees) at 8 MPH (7 knots; 3.6 m/s)
Visibility: 6 or more miles (10+ km)
Ceiling: 6400 feet AGL
Clouds: few clouds at 4700 feet AGL
overcast cloud deck at 6400 feet AGL
Weather: no significant weather observed at this time

METAR text: LFQQ 191330Z AUTO 25007KT 9999 FEW030 SCT041 OVC060 11/04 Q1028 TEMPO 4000 SHRA BKN030TCU
Conditions at: LFQQ (LILLE/LESQUIN , FR) observed 1330 UTC 19 March 2019
Temperature: 11.0°C (52°F)
Dewpoint: 4.0°C (39°F) [RH = 62%]
Pressure (altimeter): 30.35 inches Hg (1028.0 mb)
Winds: from the WSW (250 degrees) at 8 MPH (7 knots; 3.6 m/s)
Visibility: 6 or more miles (10+ km)
Ceiling: 6000 feet AGL
Clouds: few clouds at 3000 feet AGL
scattered clouds at 4100 feet AGL
overcast cloud deck at 6000 feet AGL
Weather: no significant weather observed at this time

METAR text: LFQQ 191300Z AUTO 26008KT 9999 BKN031 BKN047 OVC054 11/05 Q1029 NOSIG
Conditions at: LFQQ (LILLE/LESQUIN , FR) observed 1300 UTC 19 March 2019
Temperature: 11.0°C (52°F)
Dewpoint: 5.0°C (41°F) [RH = 66%]
Pressure (altimeter): 30.38 inches Hg (1029.0 mb)
Winds: from the W (260 degrees) at 9 MPH (8 knots; 4.1 m/s)
Visibility: 6 or more miles (10+ km)
Ceiling: 3100 feet AGL
Clouds: broken clouds at 3100 feet AGL
broken clouds at 4700 feet AGL
overcast cloud deck at 5400 feet AGL
Weather: no significant weather observed at this time

METAR text: LFQQ 191230Z AUTO 22007KT 190V250 9999 SCT030 BKN044 BKN054 11/04 Q1029 NOSIG
Conditions at: LFQQ (LILLE/LESQUIN , FR) observed 1230 UTC 19 March 2019
Temperature: 11.0°C (52°F)
Dewpoint: 4.0°C (39°F) [RH = 62%]
Pressure (altimeter): 30.38 inches Hg (1029.0 mb)
Winds: from the SW (220 degrees) at 8 MPH (7 knots; 3.6 m/s)
Visibility: 6 or more miles (10+ km)
Ceiling: 4400 feet AGL
Clouds: scattered clouds at 3000 feet AGL
broken clouds at 4400 feet AGL
broken clouds at 5400 feet AGL
Weather: no significant weather observed at this time

METAR text: LFQQ 191200Z AUTO 21007KT 180V240 9999 SCT027 SCT036 BKN058 11/05 Q1029 NOSIG
Conditions at: LFQQ (LILLE/LESQUIN , FR) observed 1200 UTC 19 March 2019
Temperature: 11.0°C (52°F)
Dewpoint: 5.0°C (41°F) [RH = 66%]
Pressure (altimeter): 30.38 inches Hg (1029.0 mb)
Winds: from the SSW (210 degrees) at 8 MPH (7 knots; 3.6 m/s)
Visibility: 6 or more miles (10+ km)
Ceiling: 5800 feet AGL
Clouds: scattered clouds at 2700 feet AGL
scattered clouds at 3600 feet AGL
broken clouds at 5800 feet AGL
Weather: no significant weather observed at this time

METAR text: LFQQ 191130Z AUTO 23005KT 170V270 9999 FEW022 OVC090 11/05 Q1029 NOSIG
Conditions at: LFQQ (LILLE/LESQUIN , FR) observed 1130 UTC 19 March 2019
Temperature: 11.0°C (52°F)
Dewpoint: 5.0°C (41°F) [RH = 66%]
Pressure (altimeter): 30.38 inches Hg (1029.0 mb)
Winds: from the SW (230 degrees) at 6 MPH (5 knots; 2.6 m/s)
Visibility: 6 or more miles (10+ km)
Ceiling: 9000 feet AGL
Clouds: few clouds at 2200 feet AGL
overcast cloud deck at 9000 feet AGL
Weather: no significant weather observed at this time

METAR text: LFQQ 191100Z AUTO 24008KT 9999 SCT021 BKN027 BKN042 10/05 Q1029 NOSIG
Conditions at: LFQQ (LILLE/LESQUIN , FR) observed 1100 UTC 19 March 2019
Temperature: 10.0°C (50°F)
Dewpoint: 5.0°C (41°F) [RH = 71%]
Pressure (altimeter): 30.38 inches Hg (1029.0 mb)
Winds: from the WSW (240 degrees) at 9 MPH (8 knots; 4.1 m/s)
Visibility: 6 or more miles (10+ km)
Ceiling: 2700 feet AGL
Clouds: scattered clouds at 2100 feet AGL
broken clouds at 2700 feet AGL
broken clouds at 4200 feet AGL
Weather: no significant weather observed at this time

METAR text: LFQQ 191030Z AUTO 24008KT 190V270 9999 FEW016 SCT021 BKN047 10/05 Q1029 NOSIG
Conditions at: LFQQ (LILLE/LESQUIN , FR) observed 1030 UTC 19 March 2019
Temperature: 10.0°C (50°F)
Dewpoint: 5.0°C (41°F) [RH = 71%]
Pressure (altimeter): 30.38 inches Hg (1029.0 mb)
Winds: from the WSW (240 degrees) at 9 MPH (8 knots; 4.1 m/s)
Visibility: 6 or more miles (10+ km)
Ceiling: 4700 feet AGL
Clouds: few clouds at 1600 feet AGL
scattered clouds at 2100 feet AGL
broken clouds at 4700 feet AGL
Weather: no significant weather observed at this time

METAR text: LFQQ 191000Z AUTO 23008KT 9999 SCT013 09/05 Q1028 NOSIG
Conditions at: LFQQ (LILLE/LESQUIN , FR) observed 1000 UTC 19 March 2019
Temperature: 9.0°C (48°F)
Dewpoint: 5.0°C (41°F) [RH = 76%]
Pressure (altimeter): 30.35 inches Hg (1028.0 mb)
Winds: from the SW (230 degrees) at 9 MPH (8 knots; 4.1 m/s)
Visibility: 6 or more miles (10+ km)
Ceiling: at least 12,000 feet AGL
Clouds: scattered clouds at 1300 feet AGL
Weather: no significant weather observed at this time

METAR text: LFQQ 190930Z AUTO 23007KT 210V270 9999 SCT011 SCT088 09/06 Q1028 NOSIG
Conditions at: LFQQ (LILLE/LESQUIN , FR) observed 0930 UTC 19 March 2019
Temperature: 9.0°C (48°F)
Dewpoint: 6.0°C (43°F) [RH = 81%]
Pressure (altimeter): 30.35 inches Hg (1028.0 mb)
Winds: from the SW (230 degrees) at 8 MPH (7 knots; 3.6 m/s)
Visibility: 6 or more miles (10+ km)
Ceiling: at least 12,000 feet AGL
Clouds: scattered clouds at 1100 feet AGL
scattered clouds at 8800 feet AGL
Weather: no significant weather observed at this time

METAR text: LFQQ 190900Z AUTO 18003KT 150V230 9999 FEW009 08/06 Q1028 TEMPO BKN010
Conditions at: LFQQ (LILLE/LESQUIN , FR) observed 0900 UTC 19 March 2019
Temperature: 8.0°C (46°F)
Dewpoint: 6.0°C (43°F) [RH = 87%]
Pressure (altimeter): 30.35 inches Hg (1028.0 mb)
Winds: from the S (180 degrees) at 3 MPH (3 knots; 1.5 m/s)
Visibility: 6 or more miles (10+ km)
Ceiling: at least 12,000 feet AGL
Clouds: few clouds at 900 feet AGL
Weather: no significant weather observed at this time

METAR text: LFQQ 190830Z AUTO 16003KT 9999 FEW011 06/05 Q1028 TEMPO BKN010
Conditions at: LFQQ (LILLE/LESQUIN , FR) observed 0830 UTC 19 March 2019
Temperature: 6.0°C (43°F)
Dewpoint: 5.0°C (41°F) [RH = 93%]
Pressure (altimeter): 30.35 inches Hg (1028.0 mb)
Winds: from the SSE (160 degrees) at 3 MPH (3 knots; 1.5 m/s)
Visibility: 6 or more miles (10+ km)
Ceiling: at least 12,000 feet AGL
Clouds: few clouds at 1100 feet AGL
Weather: no significant weather observed at this time

METAR text: LFQQ 190800Z AUTO VRB02KT 7000 FEW011 04/04 Q1028 TEMPO BKN003 BECMG 3000 BR
Conditions at: LFQQ (LILLE/LESQUIN , FR) observed 0800 UTC 19 March 2019
Temperature: 4.0°C (39°F)
Dewpoint: 4.0°C (39°F) [RH = 100%]
Pressure (altimeter): 30.35 inches Hg (1028.0 mb)
Winds: variable direction winds at 2 MPH (2 knots; 1.0 m/s)
Visibility: 4 miles ( 7 km)
Ceiling: at least 12,000 feet AGL
Clouds: few clouds at 1100 feet AGL
Weather: no significant weather observed at this time

METAR text: LFQQ 190730Z AUTO 00000KT 5000 BR NSC 02/02 Q1027 TEMPO 0500 BCFG BKN003
Conditions at: LFQQ (LILLE/LESQUIN , FR) observed 0730 UTC 19 March 2019
Temperature: 2.0°C (36°F)
Dewpoint: 2.0°C (36°F) [RH = 100%]
Pressure (altimeter): 30.32 inches Hg (1027.0 mb)
Winds: calm
Visibility: 3 miles ( 5 km)
Ceiling: at least 12,000 feet AGL
Clouds: sky clear below 12,000 feet AGL
Weather: BR  (mist)

METAR text: LFQQ 190700Z AUTO 19001KT 4300 BR NSC 01/01 Q1027 TEMPO 0500 BCFG BKN003
Conditions at: LFQQ (LILLE/LESQUIN , FR) observed 0700 UTC 19 March 2019
Temperature: 1.0°C (34°F)
Dewpoint: 1.0°C (34°F) [RH = 100%]
Pressure (altimeter): 30.32 inches Hg (1027.0 mb)
Winds: from the S (190 degrees) at 1 MPH (1 knots; 0.5 m/s)
Visibility: 2.67 miles (4.30 km)
Ceiling: at least 12,000 feet AGL
Clouds: sky clear below 12,000 feet AGL
Weather: BR  (mist)

METAR text: LFQQ 190630Z AUTO 00000KT 3400 BR NSC 01/00 Q1027 TEMPO 0500 BCFG BKN003
Conditions at: LFQQ (LILLE/LESQUIN , FR) observed 0630 UTC 19 March 2019
Temperature: 1.0°C (34°F)
Dewpoint: 0.0°C (32°F) [RH = 93%]
Pressure (altimeter): 30.32 inches Hg (1027.0 mb)
Winds: calm
Visibility: 2.11 miles (3.40 km)
Ceiling: at least 12,000 feet AGL
Clouds: sky clear below 12,000 feet AGL
Weather: BR  (mist)

METAR text: LFQQ 190600Z AUTO 13003KT 3600 R08/1300U BR NSC 00/00 Q1026 BECMG 7000 NSW
Conditions at: LFQQ (LILLE/LESQUIN , FR) observed 0600 UTC 19 March 2019
Temperature: 0.0°C (32°F)
Dewpoint: 0.0°C (32°F) [RH = 100%]
Pressure (altimeter): 30.30 inches Hg (1026.0 mb)
Winds: from the SE (130 degrees) at 3 MPH (3 knots; 1.5 m/s)
Visibility: 2.24 miles (3.60 km)
Ceiling: at least 12,000 feet AGL
Clouds: sky clear below 12,000 feet AGL
Weather: BR  (mist)

METAR text: LFQQ 190530Z AUTO 07001KT 2700 0800 R26/0900U R08/P2000 BCFG NSC 00/M00 Q1026 BECMG 7000 NSW
Conditions at: LFQQ (LILLE/LESQUIN , FR) observed 0530 UTC 19 March 2019
Temperature: 0.0°C (32°F)
Dewpoint: 0.0°C (32°F) [RH = 100%]
Pressure (altimeter): 30.30 inches Hg (1026.0 mb)
Winds: from the ENE (70 degrees) at 1 MPH (1 knots; 0.5 m/s)
Visibility: 1.68 miles (2.70 km)
Ceiling: at least 12,000 feet AGL
Clouds: sky clear below 12,000 feet AGL
Weather: BCFG  (patches of fog)

METAR text: LFQQ 190500Z AUTO 00000KT 5000 BR NSC 01/00 Q1026 NOSIG
Conditions at: LFQQ (LILLE/LESQUIN , FR) observed 0500 UTC 19 March 2019
Temperature: 1.0°C (34°F)
Dewpoint: 0.0°C (32°F) [RH = 93%]
Pressure (altimeter): 30.30 inches Hg (1026.0 mb)
Winds: calm
Visibility: 3 miles ( 5 km)
Ceiling: at least 12,000 feet AGL
Clouds: sky clear below 12,000 feet AGL
Weather: BR  (mist)

METAR text: LFQQ 190430Z AUTO 09001KT 6000 NSC 00/00 Q1026 TEMPO 3000 BR
Conditions at: LFQQ (LILLE/LESQUIN , FR) observed 0430 UTC 19 March 2019
Temperature: 0.0°C (32°F)
Dewpoint: 0.0°C (32°F) [RH = 100%]
Pressure (altimeter): 30.30 inches Hg (1026.0 mb)
Winds: from the E (90 degrees) at 1 MPH (1 knots; 0.5 m/s)
Visibility: 4 miles ( 6 km)
Ceiling: at least 12,000 feet AGL
Clouds: sky clear below 12,000 feet AGL
Weather: no significant weather observed at this time

METAR text: LFQQ 190400Z AUTO 00000KT 6000 NSC 00/M00 Q1026 TEMPO 3000 BR
Conditions at: LFQQ (LILLE/LESQUIN , FR) observed 0400 UTC 19 March 2019
Temperature: 0.0°C (32°F)
Dewpoint: 0.0°C (32°F) [RH = 100%]
Pressure (altimeter): 30.30 inches Hg (1026.0 mb)
Winds: calm
Visibility: 4 miles ( 6 km)
Ceiling: at least 12,000 feet AGL
Clouds: sky clear below 12,000 feet AGL
Weather: no significant weather observed at this time

METAR text: LFQQ 190330Z AUTO 00000KT 6000 NSC 00/M00 Q1026 TEMPO 0800 BCFG
Conditions at: LFQQ (LILLE/LESQUIN , FR) observed 0330 UTC 19 March 2019
Temperature: 0.0°C (32°F)
Dewpoint: 0.0°C (32°F) [RH = 100%]
Pressure (altimeter): 30.30 inches Hg (1026.0 mb)
Winds: calm
Visibility: 4 miles ( 6 km)
Ceiling: at least 12,000 feet AGL
Clouds: sky clear below 12,000 feet AGL
Weather: no significant weather observed at this time

METAR text: LFQQ 190300Z AUTO 00000KT 7000 NSC 01/M00 Q1026 TEMPO 0800 BCFG
Conditions at: LFQQ (LILLE/LESQUIN , FR) observed 0300 UTC 19 March 2019
Temperature: 1.0°C (34°F)
Dewpoint: 0.0°C (32°F) [RH = 93%]
Pressure (altimeter): 30.30 inches Hg (1026.0 mb)
Winds: calm
Visibility: 4 miles ( 7 km)
Ceiling: at least 12,000 feet AGL
Clouds: sky clear below 12,000 feet AGL
Weather: no significant weather observed at this time

METAR text: LFQQ 190230Z AUTO 15001KT 8000 NSC 01/00 Q1025 TEMPO 0800 BCFG
Conditions at: LFQQ (LILLE/LESQUIN , FR) observed 0230 UTC 19 March 2019
Temperature: 1.0°C (34°F)
Dewpoint: 0.0°C (32°F) [RH = 93%]
Pressure (altimeter): 30.27 inches Hg (1025.0 mb)
Winds: from the SSE (150 degrees) at 1 MPH (1 knots; 0.5 m/s)
Visibility: 5 miles ( 8 km)
Ceiling: at least 12,000 feet AGL
Clouds: sky clear below 12,000 feet AGL
Weather: no significant weather observed at this time

METAR text: LFQQ 190200Z AUTO 11001KT CAVOK 01/00 Q1025 TEMPO 0800 BCFG
Conditions at: LFQQ (LILLE/LESQUIN , FR) observed 0200 UTC 19 March 2019
Temperature: 1.0°C (34°F)
Dewpoint: 0.0°C (32°F) [RH = 93%]
Pressure (altimeter): 30.27 inches Hg (1025.0 mb)
Winds: from the ESE (110 degrees) at 1 MPH (1 knots; 0.5 m/s)
Visibility: 6 or more miles (10+ km)
Ceiling: ceiling and visibility are OK
Clouds: unknown
Weather: no significant weather observed at this time

METAR text: LFQQ 190130Z AUTO 00000KT 9000 NSC 01/00 Q1025 TEMPO 0800 BCFG
Conditions at: LFQQ (LILLE/LESQUIN , FR) observed 0130 UTC 19 March 2019
Temperature: 1.0°C (34°F)
Dewpoint: 0.0°C (32°F) [RH = 93%]
Pressure (altimeter): 30.27 inches Hg (1025.0 mb)
Winds: calm
Visibility: 6 miles ( 9 km)
Ceiling: at least 12,000 feet AGL
Clouds: sky clear below 12,000 feet AGL
Weather: no significant weather observed at this time

METAR text: LFQQ 190100Z AUTO 14002KT 9000 NSC 02/01 Q1025 BECMG 3000 BR
Conditions at: LFQQ (LILLE/LESQUIN , FR) observed 0100 UTC 19 March 2019
Temperature: 2.0°C (36°F)
Dewpoint: 1.0°C (34°F) [RH = 93%]
Pressure (altimeter): 30.27 inches Hg (1025.0 mb)
Winds: from the SE (140 degrees) at 2 MPH (2 knots; 1.0 m/s)
Visibility: 6 miles ( 9 km)
Ceiling: at least 12,000 feet AGL
Clouds: sky clear below 12,000 feet AGL
Weather: no significant weather observed at this time

METAR text: LFQQ 190030Z AUTO 00000KT CAVOK 02/00 Q1025 BECMG 3000 BR
Conditions at: LFQQ (LILLE/LESQUIN , FR) observed 0030 UTC 19 March 2019
Temperature: 2.0°C (36°F)
Dewpoint: 0.0°C (32°F) [RH = 87%]
Pressure (altimeter): 30.27 inches Hg (1025.0 mb)
Winds: calm
Visibility: 6 or more miles (10+ km)
Ceiling: ceiling and visibility are OK
Clouds: unknown
Weather: no significant weather observed at this time

METAR text: LFQQ 190000Z AUTO 00000KT CAVOK 02/00 Q1025 BECMG 3000 BR
Conditions at: LFQQ (LILLE/LESQUIN , FR) observed 0000 UTC 19 March 2019
Temperature: 2.0°C (36°F)
Dewpoint: 0.0°C (32°F) [RH = 87%]
Pressure (altimeter): 30.27 inches Hg (1025.0 mb)
Winds: calm
Visibility: 6 or more miles (10+ km)
Ceiling: ceiling and visibility are OK
Clouds: unknown
Weather: no significant weather observed at this time

METAR text: LFQQ 182330Z AUTO VRB01KT CAVOK 02/00 Q1025 BECMG 3000 BR
Conditions at: LFQQ (LILLE/LESQUIN , FR) observed 2330 UTC 18 March 2019
Temperature: 2.0°C (36°F)
Dewpoint: 0.0°C (32°F) [RH = 87%]
Pressure (altimeter): 30.27 inches Hg (1025.0 mb)
Winds: variable direction winds at 1 MPH (1 knots; 0.5 m/s)
Visibility: 6 or more miles (10+ km)
Ceiling: ceiling and visibility are OK
Clouds: unknown
Weather: no significant weather observed at this time

METAR text: LFQQ 182300Z AUTO 10002KT CAVOK 02/01 Q1025 BECMG 3000 BR
Conditions at: LFQQ (LILLE/LESQUIN , FR) observed 2300 UTC 18 March 2019
Temperature: 2.0°C (36°F)
Dewpoint: 1.0°C (34°F) [RH = 93%]
Pressure (altimeter): 30.27 inches Hg (1025.0 mb)
Winds: from the E (100 degrees) at 2 MPH (2 knots; 1.0 m/s)
Visibility: 6 or more miles (10+ km)
Ceiling: ceiling and visibility are OK
Clouds: unknown
Weather: no significant weather observed at this time

METAR text: LFQQ 182230Z AUTO 00000KT CAVOK 02/01 Q1025 BECMG 3000 BR
Conditions at: LFQQ (LILLE/LESQUIN , FR) observed 2230 UTC 18 March 2019
Temperature: 2.0°C (36°F)
Dewpoint: 1.0°C (34°F) [RH = 93%]
Pressure (altimeter): 30.27 inches Hg (1025.0 mb)
Winds: calm
Visibility: 6 or more miles (10+ km)
Ceiling: ceiling and visibility are OK
Clouds: unknown
Weather: no significant weather observed at this time

METAR text: LFQQ 182200Z AUTO 15002KT CAVOK 03/01 Q1024 NOSIG
Conditions at: LFQQ (LILLE/LESQUIN , FR) observed 2200 UTC 18 March 2019
Temperature: 3.0°C (37°F)
Dewpoint: 1.0°C (34°F) [RH = 87%]
Pressure (altimeter): 30.24 inches Hg (1024.0 mb)
Winds: from the SSE (150 degrees) at 2 MPH (2 knots; 1.0 m/s)
Visibility: 6 or more miles (10+ km)
Ceiling: ceiling and visibility are OK
Clouds: unknown
Weather: no significant weather observed at this time

METAR text: LFQQ 182130Z AUTO 20003KT 160V230 CAVOK 04/01 Q1024 NOSIG
Conditions at: LFQQ (LILLE/LESQUIN , FR) observed 2130 UTC 18 March 2019
Temperature: 4.0°C (39°F)
Dewpoint: 1.0°C (34°F) [RH = 81%]
Pressure (altimeter): 30.24 inches Hg (1024.0 mb)
Winds: from the SSW (200 degrees) at 3 MPH (3 knots; 1.5 m/s)
Visibility: 6 or more miles (10+ km)
Ceiling: ceiling and visibility are OK
Clouds: unknown
Weather: no significant weather observed at this time

METAR text: LFQQ 182100Z AUTO 24003KT CAVOK 04/01 Q1024 NOSIG
Conditions at: LFQQ (LILLE/LESQUIN , FR) observed 2100 UTC 18 March 2019
Temperature: 4.0°C (39°F)
Dewpoint: 1.0°C (34°F) [RH = 81%]
Pressure (altimeter): 30.24 inches Hg (1024.0 mb)
Winds: from the WSW (240 degrees) at 3 MPH (3 knots; 1.5 m/s)
Visibility: 6 or more miles (10+ km)
Ceiling: ceiling and visibility are OK
Clouds: unknown
Weather: no significant weather observed at this time

METAR text: LFQQ 182030Z AUTO 35001KT CAVOK 04/01 Q1024 NOSIG
Conditions at: LFQQ (LILLE/LESQUIN , FR) observed 2030 UTC 18 March 2019
Temperature: 4.0°C (39°F)
Dewpoint: 1.0°C (34°F) [RH = 81%]
Pressure (altimeter): 30.24 inches Hg (1024.0 mb)
Winds: from the N (350 degrees) at 1 MPH (1 knots; 0.5 m/s)
Visibility: 6 or more miles (10+ km)
Ceiling: ceiling and visibility are OK
Clouds: unknown
Weather: no significant weather observed at this time

METAR text: LFQQ 182000Z AUTO 00000KT CAVOK 04/01 Q1024 NOSIG
Conditions at: LFQQ (LILLE/LESQUIN , FR) observed 2000 UTC 18 March 2019
Temperature: 4.0°C (39°F)
Dewpoint: 1.0°C (34°F) [RH = 81%]
Pressure (altimeter): 30.24 inches Hg (1024.0 mb)
Winds: calm
Visibility: 6 or more miles (10+ km)
Ceiling: ceiling and visibility are OK
Clouds: unknown
Weather: no significant weather observed at this time

Forecast for: LFQQ (LILLE/LESQUIN , FR)
Text: TAF LFQQ 200500Z 2006/2112 20005KT 8000 NSC
Forecast period: 0600 to 2200 UTC 20 March 2019
Forecast type: FROM: standard forecast or significant change
Winds: from the SSW (200 degrees) at 6 MPH (5 knots; 2.6 m/s)
Visibility: 5 miles (8 km)
Ceiling: unknown
Clouds: missing
Weather: no significant weather forecast for this period
Text: TEMPO 2009/2012 BKN012
Forecast period: 0900 to 1200 UTC 20 March 2019
Forecast type: TEMPORARY: The following changes expected for less than half the time period
Visibility: missing
Ceiling: 1200 feet AGL
Clouds: broken clouds at 1200 feet AGL
Weather: no significant weather forecast for this period
Text: BECMG 2022/2024 2000 BR
Forecast period: 2200 UTC 20 March 2019 to 0800 UTC 21 March 2019
Forecast type: BECOMING: Conditions expected to become as follows by 0000 UTC 21 March 2019
Winds: from the SSW (200 degrees) at 6 MPH (5 knots; 2.6 m/s)
Visibility: 1.24 miles (2.00 km)
Ceiling: unknown
Clouds: missing
Weather: BR  (mist)
Text: PROB40 2100/2108 0500 FG
Forecast period: 0000 to 0800 UTC 21 March 2019
Forecast type: PROBABLE: 40 percent likelihood of the following during this time
Visibility: 0.31 miles (0.50 km)
Ceiling: unknown
Clouds: missing
Weather: FG  (fog)
Text: BECMG 2108/2110 9999 NSW
Forecast period: 0800 to 1200 UTC 21 March 2019
Forecast type: BECOMING: Conditions expected to become as follows by 1000 UTC 21 March 2019
Winds: from the SSW (200 degrees) at 6 MPH (5 knots; 2.6 m/s)
Visibility: 6 or more miles 10+ km)
Ceiling: unknown
Clouds: missing
Weather: NSW  (no significant weather)